Time,TemperatureF,DewpointF,PressureIn,WindDirection,WindDirectionDegrees,WindSpeedMPH,WindSpeedGustMPH,Humidity,HourlyPrecipIn,Conditions,Clouds,dailyrainin,SoftwareType,DateUTC
2013-06-30 00:02:00,70.0,60.0,29.72,ENE,71,0.0,-999.0,71,-99.99,,,-99.99,,2013-06-30 05:02:00,
2013-06-30 00:12:00,70.0,60.0,29.72,ENE,71,0.0,-999.0,71,-99.99,,,-99.99,,2013-06-30 05:12:00,
2013-06-30 00:22:00,71.0,59.0,29.72,NE,53,0.0,-999.0,67,-99.99,,,-99.99,,2013-06-30 05:22:00,
2013-06-30 00:33:00,73.0,59.0,29.73,NW,311,0.0,-999.0,61,-99.99,,,-99.99,,2013-06-30 05:33:00,
2013-06-30 00:43:00,73.0,59.0,29.73,NW,311,0.0,-999.0,61,-99.99,,,-99.99,,2013-06-30 05:43:00,
2013-06-30 00:53:00,74.0,59.0,29.73,WSW,257,1.0,-999.0,59,-99.99,,,-99.99,,2013-06-30 05:53:00,
2013-06-30 01:02:00,74.0,60.0,29.74,WSW,242,1.0,-999.0,61,-99.99,,,-99.99,,2013-06-30 06:02:00,
2013-06-30 01:12:00,74.0,60.0,29.74,WSW,242,1.0,-999.0,61,-99.99,,,-99.99,,2013-06-30 06:12:00,
2013-06-30 01:23:00,73.0,59.0,29.73,West,273,1.0,-999.0,62,-99.99,,,-99.99,,2013-06-30 06:23:00,
2013-06-30 01:34:00,73.0,60.0,29.74,NNW,337,1.0,-999.0,63,-99.99,,,-99.99,,2013-06-30 06:34:00,
2013-06-30 01:43:00,73.0,60.0,29.74,NNW,337,1.0,-999.0,63,-99.99,,,-99.99,,2013-06-30 06:43:00,
2013-06-30 01:53:00,72.0,59.0,29.74,NW,325,1.0,-999.0,63,-99.99,,,-99.99,,2013-06-30 06:53:00,
2013-06-30 02:02:00,72.0,59.0,29.74,West,270,0.0,-999.0,64,-99.99,,,-99.99,,2013-06-30 07:02:00,
2013-06-30 02:12:00,72.0,59.0,29.74,West,270,0.0,-999.0,64,-99.99,,,-99.99,,2013-06-30 07:12:00,
2013-06-30 02:22:00,71.0,59.0,29.74,West,270,0.0,-999.0,65,-99.99,,,-99.99,,2013-06-30 07:22:00,
2013-06-30 02:33:00,70.0,59.0,29.74,West,270,0.0,-999.0,68,-99.99,,,-99.99,,2013-06-30 07:33:00,
2013-06-30 02:44:00,70.0,59.0,29.74,West,270,0.0,-999.0,68,-99.99,,,-99.99,,2013-06-30 07:44:00,
2013-06-30 02:53:00,69.0,58.0,29.75,West,270,0.0,-999.0,69,-99.99,,,-99.99,,2013-06-30 07:53:00,
2013-06-30 03:02:00,69.0,59.0,29.75,West,270,0.0,-999.0,71,-99.99,,,-99.99,,2013-06-30 08:02:00,
2013-06-30 03:12:00,69.0,59.0,29.75,West,270,0.0,-999.0,71,-99.99,,,-99.99,,2013-06-30 08:12:00,
2013-06-30 03:22:00,68.0,59.0,29.75,West,270,0.0,-999.0,73,-99.99,,,-99.99,,2013-06-30 08:22:00,
2013-06-30 03:33:00,68.0,59.0,29.75,West,270,0.0,-999.0,74,-99.99,,,-99.99,,2013-06-30 08:33:00,
2013-06-30 03:42:00,68.0,59.0,29.75,West,270,0.0,-999.0,74,-99.99,,,-99.99,,2013-06-30 08:42:00,
2013-06-30 03:53:00,67.0,59.0,29.75,West,270,0.0,-999.0,75,-99.99,,,-99.99,,2013-06-30 08:53:00,
2013-06-30 04:01:00,67.0,59.0,29.74,West,270,0.0,-999.0,76,-99.99,,,-99.99,,2013-06-30 09:01:00,
2013-06-30 04:12:00,67.0,59.0,29.74,West,270,0.0,-999.0,76,-99.99,,,-99.99,,2013-06-30 09:12:00,
2013-06-30 04:23:00,66.0,59.0,29.75,West,270,0.0,-999.0,79,-99.99,,,-99.99,,2013-06-30 09:23:00,
2013-06-30 04:34:00,64.0,58.0,29.75,West,270,0.0,-999.0,80,-99.99,,,-99.99,,2013-06-30 09:34:00,
2013-06-30 04:43:00,64.0,58.0,29.75,West,270,0.0,-999.0,80,-99.99,,,-99.99,,2013-06-30 09:43:00,
2013-06-30 04:53:00,63.0,58.0,29.75,West,270,0.0,-999.0,84,-99.99,,,-99.99,,2013-06-30 09:53:00,
2013-06-30 05:02:00,62.0,57.0,29.75,West,270,0.0,-999.0,85,-99.99,,,-99.99,,2013-06-30 10:02:00,
2013-06-30 05:11:00,62.0,57.0,29.75,West,270,0.0,-999.0,85,-99.99,,,-99.99,,2013-06-30 10:11:00,
2013-06-30 05:22:00,62.0,58.0,29.76,West,270,0.0,-999.0,87,-99.99,,,-99.99,,2013-06-30 10:22:00,
2013-06-30 05:33:00,61.0,57.0,29.76,West,270,0.0,-999.0,87,-99.99,,,-99.99,,2013-06-30 10:33:00,
2013-06-30 05:42:00,61.0,57.0,29.76,West,270,0.0,-999.0,87,-99.99,,,-99.99,,2013-06-30 10:42:00,
2013-06-30 05:53:00,61.0,57.0,29.77,West,270,0.0,-999.0,88,-99.99,,,-99.99,,2013-06-30 10:53:00,
2013-06-30 06:02:00,61.0,58.0,29.77,NW,317,0.0,-999.0,89,-99.99,,,-99.99,,2013-06-30 11:02:00,
2013-06-30 06:11:00,61.0,58.0,29.77,NW,317,0.0,-999.0,89,-99.99,,,-99.99,,2013-06-30 11:11:00,
2013-06-30 06:22:00,61.0,58.0,29.78,NW,317,0.0,-999.0,90,-99.99,,,-99.99,,2013-06-30 11:22:00,
2013-06-30 06:33:00,62.0,59.0,29.79,NNE,22,0.0,-999.0,90,-99.99,,,-99.99,,2013-06-30 11:33:00,
2013-06-30 06:43:00,62.0,59.0,29.79,NNE,22,0.0,-999.0,90,-99.99,,,-99.99,,2013-06-30 11:43:00,
2013-06-30 06:53:00,65.0,59.0,29.80,WNW,295,1.0,-999.0,81,-99.99,,,-99.99,,2013-06-30 11:53:00,
2013-06-30 07:02:00,66.0,59.0,29.80,North,355,0.0,-999.0,79,-99.99,,,-99.99,,2013-06-30 12:02:00,
2013-06-30 07:11:00,66.0,59.0,29.80,North,355,0.0,-999.0,79,-99.99,,,-99.99,,2013-06-30 12:11:00,
2013-06-30 07:24:00,67.0,60.0,29.80,WNW,302,1.0,-999.0,77,-99.99,,,-99.99,,2013-06-30 12:24:00,
2013-06-30 07:33:00,67.0,60.0,29.81,North,355,1.0,-999.0,77,-99.99,,,-99.99,,2013-06-30 12:33:00,
2013-06-30 07:43:00,67.0,60.0,29.81,North,355,1.0,-999.0,77,-99.99,,,-99.99,,2013-06-30 12:43:00,
2013-06-30 07:52:00,67.0,60.0,29.81,WSW,255,1.0,-999.0,77,-99.99,,,-99.99,,2013-06-30 12:52:00,
2013-06-30 08:02:00,67.0,60.0,29.81,West,275,1.0,-999.0,78,-99.99,,,-99.99,,2013-06-30 13:02:00,
2013-06-30 08:12:00,67.0,60.0,29.81,West,275,1.0,-999.0,78,-99.99,,,-99.99,,2013-06-30 13:12:00,
2013-06-30 08:22:00,67.0,60.0,29.81,West,275,1.0,-999.0,78,-99.99,,,-99.99,,2013-06-30 13:22:00,
2013-06-30 08:34:00,68.0,60.0,29.81,West,277,0.0,-999.0,76,-99.99,,,-99.99,,2013-06-30 13:34:00,
2013-06-30 08:43:00,68.0,60.0,29.81,West,277,0.0,-999.0,76,-99.99,,,-99.99,,2013-06-30 13:43:00,
2013-06-30 08:53:00,70.0,62.0,29.81,NE,47,0.0,-999.0,75,-99.99,,,-99.99,,2013-06-30 13:53:00,
2013-06-30 09:02:00,71.0,61.0,29.81,WNW,292,1.0,-999.0,71,-99.99,,,-99.99,,2013-06-30 14:02:00,
2013-06-30 09:11:00,71.0,61.0,29.81,WNW,292,1.0,-999.0,71,-99.99,,,-99.99,,2013-06-30 14:11:00,
2013-06-30 09:22:00,72.0,62.0,29.81,NNW,333,3.0,-999.0,70,-99.99,,,-99.99,,2013-06-30 14:22:00,
2013-06-30 09:33:00,72.0,62.0,29.82,WNW,302,1.0,-999.0,70,-99.99,,,-99.99,,2013-06-30 14:33:00,
2013-06-30 09:44:00,72.0,62.0,29.82,WNW,302,1.0,-999.0,70,-99.99,,,-99.99,,2013-06-30 14:44:00,
2013-06-30 09:52:00,71.0,61.0,29.82,West,280,1.0,-999.0,71,-99.99,,,-99.99,,2013-06-30 14:52:00,
2013-06-30 10:02:00,72.0,61.0,29.82,North,360,2.0,-999.0,69,-99.99,,,-99.99,,2013-06-30 15:02:00,
2013-06-30 10:12:00,72.0,61.0,29.82,North,360,2.0,-999.0,69,-99.99,,,-99.99,,2013-06-30 15:12:00,
2013-06-30 10:23:00,73.0,61.0,29.82,WNW,298,2.0,-999.0,67,-99.99,,,-99.99,,2013-06-30 15:23:00,
2013-06-30 10:34:00,72.0,60.0,29.82,ENE,59,1.0,-999.0,67,-99.99,,,-99.99,,2013-06-30 15:34:00,
2013-06-30 10:44:00,72.0,60.0,29.82,ENE,59,1.0,-999.0,67,-99.99,,,-99.99,,2013-06-30 15:44:00,
2013-06-30 10:53:00,72.0,60.0,29.83,WNW,288,3.0,-999.0,67,-99.99,,,-99.99,,2013-06-30 15:53:00,
2013-06-30 11:01:00,72.0,60.0,29.83,WNW,298,3.0,-999.0,67,-99.99,,,-99.99,,2013-06-30 16:01:00,
2013-06-30 11:11:00,72.0,60.0,29.83,WNW,298,3.0,-999.0,67,-99.99,,,-99.99,,2013-06-30 16:11:00,
2013-06-30 11:21:00,74.0,61.0,29.82,WNW,290,2.0,-999.0,65,-99.99,,,-99.99,,2013-06-30 16:21:00,
2013-06-30 11:34:00,75.0,62.0,29.82,NW,326,1.0,-999.0,63,-99.99,,,-99.99,,2013-06-30 16:34:00,
2013-06-30 11:44:00,75.0,62.0,29.82,NW,326,1.0,-999.0,63,-99.99,,,-99.99,,2013-06-30 16:44:00,
2013-06-30 11:53:00,75.0,61.0,29.82,NW,313,2.0,-999.0,61,-99.99,,,-99.99,,2013-06-30 16:53:00,
2013-06-30 12:02:00,75.0,61.0,29.82,East,79,2.0,-999.0,62,-99.99,,,-99.99,,2013-06-30 17:02:00,
2013-06-30 12:11:00,75.0,61.0,29.82,East,79,2.0,-999.0,62,-99.99,,,-99.99,,2013-06-30 17:11:00,
2013-06-30 12:23:00,76.0,61.0,29.81,NW,321,2.0,-999.0,60,-99.99,,,-99.99,,2013-06-30 17:23:00,
2013-06-30 12:34:00,77.0,62.0,29.81,ENE,76,3.0,-999.0,59,-99.99,,,-99.99,,2013-06-30 17:34:00,
2013-06-30 12:43:00,77.0,62.0,29.81,ENE,76,3.0,-999.0,59,-99.99,,,-99.99,,2013-06-30 17:43:00,
2013-06-30 12:53:00,77.0,62.0,29.81,WNW,295,2.0,-999.0,59,-99.99,,,-99.99,,2013-06-30 17:53:00,
2013-06-30 13:02:00,78.0,61.0,29.81,NW,317,3.0,-999.0,55,-99.99,,,-99.99,,2013-06-30 18:02:00,
2013-06-30 13:12:00,78.0,61.0,29.81,NW,317,3.0,-999.0,55,-99.99,,,-99.99,,2013-06-30 18:12:00,
2013-06-30 13:22:00,79.0,62.0,29.80,East,86,3.0,-999.0,56,-99.99,,,-99.99,,2013-06-30 18:22:00,
2013-06-30 13:34:00,78.0,61.0,29.80,ENE,63,2.0,-999.0,56,-99.99,,,-99.99,,2013-06-30 18:34:00,
2013-06-30 13:43:00,78.0,61.0,29.80,ENE,63,2.0,-999.0,56,-99.99,,,-99.99,,2013-06-30 18:43:00,
2013-06-30 13:53:00,78.0,59.0,29.80,ENE,57,2.0,-999.0,53,-99.99,,,-99.99,,2013-06-30 18:53:00,
2013-06-30 14:01:00,78.0,61.0,29.80,NE,45,2.0,-999.0,56,-99.99,,,-99.99,,2013-06-30 19:01:00,
2013-06-30 14:11:00,78.0,61.0,29.80,NE,45,2.0,-999.0,56,-99.99,,,-99.99,,2013-06-30 19:11:00,
2013-06-30 14:22:00,77.0,60.0,29.81,WNW,300,1.0,-999.0,55,-99.99,,,-99.99,,2013-06-30 19:22:00,
2013-06-30 14:33:00,77.0,60.0,29.80,ENE,74,1.0,-999.0,55,-99.99,,,-99.99,,2013-06-30 19:33:00,
2013-06-30 14:43:00,77.0,60.0,29.80,ENE,74,1.0,-999.0,55,-99.99,,,-99.99,,2013-06-30 19:43:00,
2013-06-30 14:53:00,79.0,62.0,29.80,NW,309,2.0,-999.0,56,-99.99,,,-99.99,,2013-06-30 19:53:00,
2013-06-30 15:02:00,79.0,60.0,29.80,NE,53,2.0,-999.0,53,-99.99,,,-99.99,,2013-06-30 20:02:00,
2013-06-30 15:11:00,79.0,60.0,29.80,NE,53,2.0,-999.0,53,-99.99,,,-99.99,,2013-06-30 20:11:00,
2013-06-30 15:22:00,77.0,61.0,29.81,East,83,0.0,-999.0,58,-99.99,,,-99.99,,2013-06-30 20:22:00,
2013-06-30 15:34:00,78.0,61.0,29.81,NE,34,1.0,-999.0,55,-99.99,,,-99.99,,2013-06-30 20:34:00,
2013-06-30 15:42:00,78.0,61.0,29.81,NE,34,1.0,-999.0,55,-99.99,,,-99.99,,2013-06-30 20:42:00,
2013-06-30 15:52:00,77.0,61.0,29.81,WNW,287,3.0,-999.0,58,-99.99,,,-99.99,,2013-06-30 20:52:00,
2013-06-30 16:01:00,77.0,61.0,29.81,North,355,1.0,-999.0,57,-99.99,,,-99.99,,2013-06-30 21:01:00,
2013-06-30 16:11:00,77.0,61.0,29.81,North,355,1.0,-999.0,57,-99.99,,,-99.99,,2013-06-30 21:11:00,
2013-06-30 16:22:00,77.0,59.0,29.80,NE,34,1.0,-999.0,54,-99.99,,,-99.99,,2013-06-30 21:22:00,
2013-06-30 16:34:00,78.0,59.0,29.81,NW,326,1.0,-999.0,53,-99.99,,,-99.99,,2013-06-30 21:34:00,
2013-06-30 16:43:00,78.0,59.0,29.81,NW,326,1.0,-999.0,53,-99.99,,,-99.99,,2013-06-30 21:43:00,
2013-06-30 16:53:00,78.0,61.0,29.81,NNW,348,1.0,-999.0,55,-99.99,,,-99.99,,2013-06-30 21:53:00,
2013-06-30 17:01:00,78.0,61.0,29.81,ENE,66,2.0,-999.0,56,-99.99,,,-99.99,,2013-06-30 22:01:00,
2013-06-30 17:11:00,78.0,61.0,29.81,ENE,66,2.0,-999.0,56,-99.99,,,-99.99,,2013-06-30 22:11:00,
2013-06-30 17:22:00,77.0,62.0,29.81,ENE,61,1.0,-999.0,59,-99.99,,,-99.99,,2013-06-30 22:22:00,
2013-06-30 17:34:00,78.0,62.0,29.80,NW,307,1.0,-999.0,58,-99.99,,,-99.99,,2013-06-30 22:34:00,
2013-06-30 17:43:00,78.0,62.0,29.80,NW,307,1.0,-999.0,58,-99.99,,,-99.99,,2013-06-30 22:43:00,
2013-06-30 17:53:00,79.0,61.0,29.81,WNW,302,0.0,-999.0,55,-99.99,,,-99.99,,2013-06-30 22:53:00,
2013-06-30 18:01:00,77.0,61.0,29.81,ENE,58,2.0,-999.0,57,-99.99,,,-99.99,,2013-06-30 23:01:00,
2013-06-30 18:11:00,77.0,61.0,29.81,ENE,58,2.0,-999.0,57,-99.99,,,-99.99,,2013-06-30 23:11:00,
2013-06-30 18:22:00,76.0,60.0,29.81,NE,50,1.0,-999.0,57,-99.99,,,-99.99,,2013-06-30 23:22:00,
2013-06-30 18:33:00,75.0,59.0,29.81,NNE,26,0.0,-999.0,57,-99.99,,,-99.99,,2013-06-30 23:33:00,
2013-06-30 18:43:00,75.0,59.0,29.81,NNE,26,0.0,-999.0,57,-99.99,,,-99.99,,2013-06-30 23:43:00,
2013-06-30 18:53:00,75.0,60.0,29.81,NNW,346,0.0,-999.0,59,-99.99,,,-99.99,,2013-06-30 23:53:00,
2013-06-30 19:01:00,75.0,61.0,29.82,WNW,292,0.0,-999.0,61,-99.99,,,-99.99,,2013-07-01 00:01:00,
2013-06-30 19:11:00,75.0,61.0,29.82,WNW,292,0.0,-999.0,61,-99.99,,,-99.99,,2013-07-01 00:11:00,
2013-06-30 19:22:00,75.0,61.0,29.82,WSW,239,0.0,-999.0,62,-99.99,,,-99.99,,2013-07-01 00:22:00,
2013-06-30 19:33:00,74.0,61.0,29.82,West,273,1.0,-999.0,65,-99.99,,,-99.99,,2013-07-01 00:33:00,
2013-06-30 19:42:00,74.0,61.0,29.82,West,273,1.0,-999.0,65,-99.99,,,-99.99,,2013-07-01 00:42:00,
2013-06-30 19:52:00,73.0,62.0,29.82,West,265,1.0,-999.0,68,-99.99,,,-99.99,,2013-07-01 00:52:00,
2013-06-30 20:01:00,73.0,62.0,29.82,West,265,1.0,-999.0,68,-99.99,,,-99.99,,2013-07-01 01:01:00,
2013-06-30 20:11:00,72.0,62.0,29.83,West,267,0.0,-999.0,70,-99.99,,,-99.99,,2013-07-01 01:11:00,
2013-06-30 20:22:00,72.0,62.0,29.83,West,267,0.0,-999.0,70,-99.99,,,-99.99,,2013-07-01 01:22:00,
2013-06-30 20:33:00,72.0,62.0,29.83,West,267,0.0,-999.0,70,-99.99,,,-99.99,,2013-07-01 01:33:00,
2013-06-30 20:42:00,72.0,62.0,29.83,West,267,0.0,-999.0,70,-99.99,,,-99.99,,2013-07-01 01:42:00,
2013-06-30 20:52:00,71.0,61.0,29.83,West,267,0.0,-999.0,70,-99.99,,,-99.99,,2013-07-01 01:52:00,
2013-06-30 21:02:00,71.0,61.0,29.84,West,267,0.0,-999.0,71,-99.99,,,-99.99,,2013-07-01 02:02:00,
2013-06-30 21:11:00,71.0,61.0,29.84,West,267,0.0,-999.0,71,-99.99,,,-99.99,,2013-07-01 02:11:00,
2013-06-30 21:22:00,71.0,62.0,29.84,West,267,0.0,-999.0,73,-99.99,,,-99.99,,2013-07-01 02:22:00,
2013-06-30 21:44:00,70.0,62.0,29.84,West,267,0.0,-999.0,75,-99.99,,,-99.99,,2013-07-01 02:44:00,
2013-06-30 21:54:00,70.0,62.0,29.85,West,267,0.0,-999.0,76,-99.99,,,-99.99,,2013-07-01 02:54:00,
2013-06-30 22:01:00,70.0,62.0,29.85,West,267,0.0,-999.0,76,-99.99,,,-99.99,,2013-07-01 03:01:00,
2013-06-30 22:11:00,69.0,61.0,29.85,West,267,0.0,-999.0,76,-99.99,,,-99.99,,2013-07-01 03:11:00,
2013-06-30 22:23:00,68.0,61.0,29.86,West,267,0.0,-999.0,79,-99.99,,,-99.99,,2013-07-01 03:23:00,
2013-06-30 22:33:00,68.0,62.0,29.87,West,267,0.0,-999.0,80,-99.99,,,-99.99,,2013-07-01 03:33:00,
2013-06-30 22:43:00,68.0,62.0,29.87,West,267,0.0,-999.0,80,-99.99,,,-99.99,,2013-07-01 03:43:00,
2013-06-30 22:52:00,68.0,62.0,29.87,West,267,0.0,-999.0,80,-99.99,,,-99.99,,2013-07-01 03:52:00,
2013-06-30 23:01:00,68.0,60.0,29.86,West,267,0.0,-999.0,76,-99.99,,,-99.99,,2013-07-01 04:01:00,
2013-06-30 23:11:00,68.0,60.0,29.86,West,267,0.0,-999.0,76,-99.99,,,-99.99,,2013-07-01 04:11:00,
2013-06-30 23:22:00,69.0,60.0,29.86,West,267,1.0,-999.0,72,-99.99,,,-99.99,,2013-07-01 04:22:00,
2013-06-30 23:32:00,69.0,60.0,29.86,West,267,1.0,-999.0,72,-99.99,,,-99.99,,2013-07-01 04:32:00,
2013-06-30 23:43:00,69.0,60.0,29.86,West,267,1.0,-999.0,72,-99.99,,,-99.99,,2013-07-01 04:43:00,
2013-06-30 23:53:00,69.0,60.0,29.86,West,272,0.0,-999.0,73,-99.99,,,-99.99,,2013-07-01 04:53:00,